Time;durP1;ratioP1;P1;durP2;ratioP2;P2;SDS_P1;SDS_P2;PMS_P1;PMS_P2;Temp;Humidity;BMP_temperature;BMP_pressure;BME280_temperature;BME280_humidity;BME280_pressure;Samples;Min_cycle;Max_cycle;Signal;HPM_P1;HPM_P2
2021/03/31 00:00:26;;;;;;;13.52;6.80;;;11.00;99.90;;;;;;4943792;29;20036;-95
2021/03/31 00:02:58;;;;;;;12.63;6.30;;;11.00;99.90;;;;;;4957730;29;20027;-95
2021/03/31 00:06:24;;;;;;;14.90;7.47;;;11.00;99.90;;;;;;4957539;28;20031;-96
2021/03/31 00:08:55;;;;;;;13.32;6.45;;;11.00;99.90;;;;;;4959387;29;20043;-94
2021/03/31 00:11:47;;;;;;;10.73;6.55;;;10.90;99.90;;;;;;4930946;29;20035;-94
2021/03/31 02:44:14;;;;;;;19.58;9.70;;;9.80;99.90;;;;;;4918429;29;20079;-96
2021/03/31 02:46:42;;;;;;;19.88;9.73;;;9.80;99.90;;;;;;4901530;29;20048;-95
2021/03/31 02:49:11;;;;;;;18.00;8.68;;;9.70;99.90;;;;;;4916001;29;20005;-95
2021/03/31 02:51:38;;;;;;;17.45;7.85;;;9.60;99.90;;;;;;4915805;29;20029;-95
2021/03/31 02:54:06;;;;;;;15.00;9.07;;;9.60;99.90;;;;;;4916597;29;20028;-94
2021/03/31 02:56:33;;;;;;;16.98;8.93;;;9.60;99.90;;;;;;4920864;29;20035;-96
2021/03/31 03:01:55;;;;;;;17.05;8.68;;;9.50;99.90;;;;;;5617505;23;20099;-95
2021/03/31 03:04:23;;;;;;;18.27;9.25;;;9.50;99.90;;;;;;4957897;29;20031;-96
2021/03/31 03:06:52;;;;;;;20.33;10.25;;;9.50;99.90;;;;;;4975504;28;20027;-96
2021/03/31 03:09:20;;;;;;;21.42;9.65;;;9.40;99.90;;;;;;5060667;23;20123;-94
2021/03/31 03:11:48;;;;;;;19.98;8.57;;;9.40;99.90;;;;;;4943835;29;20028;-95
2021/03/31 04:47:54;;;;;;;17.90;7.63;;;8.80;99.90;;;;;;4023637;23;20057;-96
2021/03/31 04:51:12;;;;;;;18.83;9.23;;;8.90;99.90;;;;;;4924562;29;20066;-95
2021/03/31 04:54:05;;;;;;;15.32;6.75;;;8.90;99.90;;;;;;5063351;23;20048;-94
2021/03/31 04:56:31;;;;;;;14.82;7.90;;;8.90;99.90;;;;;;4961969;29;20039;-93
2021/03/31 04:58:58;;;;;;;15.30;8.30;;;8.90;99.90;;;;;;4960326;29;20116;-94
2021/03/31 05:01:25;;;;;;;21.35;8.57;;;8.90;99.90;;;;;;4976995;29;20058;-95
2021/03/31 05:03:53;;;;;;;14.25;7.25;;;8.90;99.90;;;;;;5032040;23;20114;-95
2021/03/31 05:06:18;;;;;;;16.15;6.30;;;8.90;99.90;;;;;;4998902;28;20053;-93
2021/03/31 05:11:50;;;;;;;14.00;7.95;;;8.90;99.90;;;;;;5018692;28;20049;-95
2021/03/31 05:17:44;;;;;;;18.73;9.70;;;8.80;99.90;;;;;;4999271;23;20055;-94
2021/03/31 05:20:11;;;;;;;17.48;8.90;;;8.80;99.90;;;;;;4943444;29;20043;-96
2021/03/31 05:39:29;;;;;;;17.10;8.98;;;8.70;99.90;;;;;;4919427;29;20081;-94
2021/03/31 05:41:58;;;;;;;22.33;10.48;;;8.60;99.90;;;;;;4949123;23;20065;-95
2021/03/31 06:26:44;;;;;;;18.67;10.77;;;8.50;99.90;;;;;;5417985;23;20118;-95
2021/03/31 06:29:15;;;;;;;16.27;10.18;;;8.60;99.90;;;;;;4949475;29;20484;-96
2021/03/31 07:14:40;;;;;;;18.50;8.88;;;8.60;99.90;;;;;;5795678;23;21119;31
2021/03/31 07:19:57;;;;;;;15.43;8.38;;;8.80;99.90;;;;;;5202265;23;20056;-95
2021/03/31 07:25:01;;;;;;;19.65;8.70;;;9.00;99.90;;;;;;4998686;23;20094;-95
2021/03/31 07:27:29;;;;;;;15.02;8.48;;;9.00;99.90;;;;;;5242854;23;20030;-94
2021/03/31 07:30:09;;;;;;;19.15;8.68;;;9.10;99.90;;;;;;5331524;23;20058;-95
2021/03/31 07:32:47;;;;;;;14.95;8.52;;;9.20;99.90;;;;;;4941843;29;20027;-94
2021/03/31 07:35:13;;;;;;;22.88;8.57;;;9.30;99.90;;;;;;4953582;29;20058;-95
2021/03/31 07:37:39;;;;;;;19.85;8.98;;;9.40;99.90;;;;;;4939103;29;20039;-94
2021/03/31 07:40:10;;;;;;;15.95;8.77;;;9.40;99.90;;;;;;4940832;29;20023;-95
2021/03/31 07:42:38;;;;;;;12.30;7.72;;;9.50;99.90;;;;;;4943664;29;20110;-94
2021/03/31 07:45:07;;;;;;;17.85;9.00;;;9.50;99.90;;;;;;4943408;29;20034;-94
2021/03/31 07:47:35;;;;;;;17.38;8.27;;;9.50;99.90;;;;;;4962014;29;20047;-93
2021/03/31 07:50:04;;;;;;;15.80;8.10;;;9.60;99.90;;;;;;4939899;29;20102;-95
2021/03/31 07:52:55;;;;;;;17.10;7.82;;;9.60;99.90;;;;;;4928148;29;20094;-95
2021/03/31 07:55:44;;;;;;;17.88;7.35;;;9.70;99.90;;;;;;4939077;29;20066;-95
2021/03/31 07:58:13;;;;;;;18.42;7.55;;;9.70;99.90;;;;;;4940496;29;20031;-93
2021/03/31 08:00:54;;;;;;;21.63;7.95;;;9.80;99.90;;;;;;4937219;29;20035;-93
2021/03/31 08:03:23;;;;;;;;;;;9.80;99.90;;;;;;4940902;29;20039;-95
2021/03/31 08:06:01;;;;;;;14.82;7.47;;;9.80;99.90;;;;;;4939170;29;19922;-94
2021/03/31 08:08:27;;;;;;;14.70;7.60;;;9.90;99.90;;;;;;4932005;29;20028;-94
2021/03/31 08:10:53;;;;;;;15.13;7.13;;;9.90;99.90;;;;;;4920181;29;20023;-93
2021/03/31 08:13:41;;;;;;;12.45;7.40;;;10.00;99.90;;;;;;4922509;29;20074;-95
2021/03/31 08:16:27;;;;;;;15.13;8.43;;;10.00;99.90;;;;;;4921227;29;20118;-94
2021/03/31 08:18:57;;;;;;;18.15;9.80;;;10.10;99.90;;;;;;4919100;29;20545;-94
2021/03/31 08:21:28;;;;;;;21.50;8.25;;;10.10;99.90;;;;;;4919336;29;20066;-94
2021/03/31 08:24:00;;;;;;;18.88;8.75;;;10.20;99.90;;;;;;4932548;29;20511;-94
2021/03/31 08:26:42;;;;;;;18.10;8.23;;;10.30;99.90;;;;;;4938669;29;20063;-93
2021/03/31 08:29:17;;;;;;;19.10;8.50;;;10.40;99.90;;;;;;4938392;29;20064;-93
2021/03/31 08:31:55;;;;;;;18.38;8.45;;;10.60;99.90;;;;;;4937628;29;20130;-94
2021/03/31 08:34:23;;;;;;;14.50;7.38;;;10.70;99.90;;;;;;4909535;29;20024;-94
2021/03/31 08:36:49;;;;;;;12.38;7.03;;;10.80;99.90;;;;;;4919902;29;20028;-95
2021/03/31 08:39:15;;;;;;;17.48;8.48;;;10.80;99.90;;;;;;4917002;29;20032;-95
2021/03/31 08:41:47;;;;;;;17.52;9.35;;;11.00;99.90;;;;;;4917145;29;20031;-96
2021/03/31 08:44:32;;;;;;;21.13;9.98;;;11.10;99.90;;;;;;4920302;29;20478;-95
2021/03/31 08:47:17;;;;;;;14.25;8.60;;;11.30;99.90;;;;;;4920055;29;20041;-96
2021/03/31 08:49:48;;;;;;;18.05;9.38;;;11.40;99.90;;;;;;4918983;29;20051;-95
2021/03/31 08:52:20;;;;;;;22.42;9.85;;;11.60;99.90;;;;;;4922811;29;20034;-96
2021/03/31 08:54:49;;;;;;;22.15;10.40;;;11.70;99.90;;;;;;4939770;29;20031;-95
2021/03/31 09:02:09;;;;;;;19.35;9.30;;;12.10;99.90;;;;;;4889588;29;20059;-95
2021/03/31 09:04:38;;;;;;;17.90;8.80;;;12.30;99.90;;;;;;4919155;29;20024;-95
2021/03/31 09:07:09;;;;;;;20.30;9.30;;;12.40;99.90;;;;;;4938614;29;20398;-95
2021/03/31 09:09:37;;;;;;;19.45;9.32;;;12.60;99.90;;;;;;4920994;29;20024;-95
2021/03/31 09:12:08;;;;;;;15.43;8.07;;;12.80;99.90;;;;;;4923365;29;20024;-96
2021/03/31 09:14:38;;;;;;;18.20;8.00;;;13.00;99.90;;;;;;4920560;29;20025;-95
2021/03/31 09:17:12;;;;;;;21.50;8.85;;;13.20;99.90;;;;;;4922064;29;20028;-95
2021/03/31 09:19:42;;;;;;;17.45;7.60;;;13.50;99.90;;;;;;4920159;29;20040;-94
2021/03/31 09:22:17;;;;;;;19.63;7.45;;;13.70;99.90;;;;;;4922783;29;20035;-95
2021/03/31 09:24:58;;;;;;;21.10;8.50;;;14.00;99.90;;;;;;4919516;29;20025;-94
2021/03/31 09:27:26;;;;;;;17.35;7.25;;;14.20;99.90;;;;;;4919237;29;20040;-95
2021/03/31 09:29:59;;;;;;;22.67;8.93;;;14.60;99.90;;;;;;4924367;29;20047;-94
2021/03/31 09:32:29;;;;;;;17.33;8.60;;;14.80;99.90;;;;;;4941270;29;20032;-94
2021/03/31 09:34:55;;;;;;;16.98;7.68;;;15.00;99.90;;;;;;4942588;29;20052;-94
2021/03/31 09:37:20;;;;;;;18.70;8.32;;;15.30;99.90;;;;;;4942243;29;20124;-94
2021/03/31 09:39:51;;;;;;;23.00;8.63;;;15.50;99.70;;;;;;4958444;29;20023;-95
2021/03/31 09:42:29;;;;;;;18.65;7.75;;;15.80;98.80;;;;;;4941595;29;20023;-94
2021/03/31 09:44:59;;;;;;;17.90;7.75;;;16.00;97.30;;;;;;4941256;29;20039;-93
2021/03/31 09:47:29;;;;;;;22.17;7.68;;;16.30;96.00;;;;;;4926331;29;20039;-94
2021/03/31 09:49:58;;;;;;;19.17;7.18;;;16.60;94.40;;;;;;4946440;29;20031;-94
2021/03/31 09:52:31;;;;;;;18.98;7.80;;;16.90;93.20;;;;;;4959926;29;20028;-95
2021/03/31 09:55:04;;;;;;;13.73;6.63;;;17.10;91.90;;;;;;4963007;29;20043;-95
2021/03/31 09:57:31;;;;;;;17.40;7.65;;;17.40;90.90;;;;;;4959816;29;20106;-95
2021/03/31 10:00:06;;;;;;;21.60;7.82;;;17.70;90.10;;;;;;4940282;29;20030;-95
2021/03/31 10:02:32;;;;;;;14.95;5.97;;;18.00;88.50;;;;;;4942750;29;20029;-95
2021/03/31 10:05:08;;;;;;;20.27;6.28;;;18.30;86.70;;;;;;4940910;29;20035;-95
2021/03/31 10:07:35;;;;;;;13.93;5.47;;;18.60;84.40;;;;;;4954578;28;20050;-93
2021/03/31 10:10:01;;;;;;;13.40;4.75;;;18.90;82.70;;;;;;4952136;29;20042;-94
2021/03/31 10:12:31;;;;;;;13.45;4.57;;;19.10;80.10;;;;;;4952136;29;20015;-94
2021/03/31 10:15:01;;;;;;;14.90;4.47;;;19.30;78.10;;;;;;4948061;29;20543;-93
2021/03/31 10:17:29;;;;;;;12.57;4.03;;;19.50;75.50;;;;;;4936435;28;20031;-94
2021/03/31 10:20:17;;;;;;;10.27;4.15;;;19.70;73.30;;;;;;4933135;29;20322;-94
2021/03/31 10:22:51;;;;;;;10.98;4.00;;;19.80;71.10;;;;;;4931976;29;20429;-94
2021/03/31 10:25:25;;;;;;;7.72;3.65;;;19.90;70.50;;;;;;4932563;29;20032;-93
2021/03/31 10:27:51;;;;;;;11.88;4.15;;;20.00;69.00;;;;;;4934984;29;20042;-94
2021/03/31 10:30:37;;;;;;;16.63;3.60;;;20.10;67.60;;;;;;4926098;29;20043;-93
2021/03/31 10:33:02;;;;;;;13.32;3.83;;;20.30;66.70;;;;;;4920629;29;20024;-92
2021/03/31 10:35:58;;;;;;;12.57;3.28;;;20.30;66.30;;;;;;4921808;29;20026;-93
2021/03/31 10:38:42;;;;;;;9.52;4.13;;;20.60;66.20;;;;;;4931007;29;20038;-93
2021/03/31 10:52:14;;;;;;;15.18;3.42;;;21.80;61.90;;;;;;4936242;29;20104;-93
2021/03/31 10:54:40;;;;;;;14.38;3.80;;;22.00;62.10;;;;;;4921891;29;20039;-93
2021/03/31 10:57:12;;;;;;;15.02;4.10;;;22.30;61.20;;;;;;4920166;29;20024;-92
2021/03/31 10:59:39;;;;;;;12.07;3.83;;;22.40;60.10;;;;;;4919953;29;20047;-92
2021/03/31 11:02:05;;;;;;;8.95;2.78;;;22.50;59.40;;;;;;4919217;29;20051;-93
2021/03/31 11:04:31;;;;;;;9.98;3.83;;;22.70;58.90;;;;;;4919882;29;20035;-92
2021/03/31 11:06:57;;;;;;;9.48;3.72;;;22.80;58.40;;;;;;4919427;29;20036;-92
2021/03/31 11:09:22;;;;;;;11.60;3.63;;;22.90;58.00;;;;;;4919599;29;20034;-92
2021/03/31 11:11:48;;;;;;;11.27;3.35;;;23.10;57.50;;;;;;4919945;29;20437;-92
2021/03/31 11:14:17;;;;;;;10.13;3.85;;;23.30;57.20;;;;;;4919612;29;20024;-92
2021/03/31 11:16:48;;;;;;;15.05;3.97;;;23.50;56.40;;;;;;4919334;29;20027;-92
2021/03/31 11:19:40;;;;;;;11.85;3.80;;;23.50;55.70;;;;;;4918060;29;20034;-92
2021/03/31 11:27:28;;;;;;;11.82;3.70;;;23.90;54.40;;;;;;4935181;29;20054;-92
2021/03/31 11:29:54;;;;;;;12.60;4.03;;;24.00;54.20;;;;;;4909301;29;20044;-91
2021/03/31 11:32:20;;;;;;;15.98;4.22;;;24.10;54.00;;;;;;4935474;29;20027;-92
2021/03/31 11:34:45;;;;;;;10.82;3.90;;;24.10;53.90;;;;;;4934546;29;20023;-93
2021/03/31 11:37:14;;;;;;;11.32;3.90;;;24.10;53.50;;;;;;4932126;29;20036;-92
2021/03/31 11:39:39;;;;;;;12.48;4.38;;;24.30;53.90;;;;;;4931579;29;20024;-91
2021/03/31 11:42:05;;;;;;;14.45;4.60;;;24.50;53.80;;;;;;4929558;29;20031;-94
2021/03/31 11:44:31;;;;;;;10.00;3.63;;;24.60;53.50;;;;;;4937780;29;20027;-93
2021/03/31 11:46:59;;;;;;;8.65;4.05;;;24.70;53.20;;;;;;4943546;29;20032;-94
2021/03/31 11:49:25;;;;;;;14.82;3.78;;;24.80;53.00;;;;;;4943886;29;20015;-92
2021/03/31 11:51:50;;;;;;;11.68;4.05;;;24.90;52.70;;;;;;4952793;28;20020;-94
2021/03/31 11:54:16;;;;;;;15.93;3.72;;;25.00;52.40;;;;;;4943106;28;20160;-93
2021/03/31 11:56:42;;;;;;;10.63;3.80;;;25.10;51.70;;;;;;4944718;29;20094;-92
2021/03/31 11:59:07;;;;;;;12.05;3.80;;;25.30;51.30;;;;;;4934914;29;20086;-94
2021/03/31 12:01:36;;;;;;;10.18;3.60;;;25.50;50.90;;;;;;4932737;29;20034;-94
2021/03/31 12:04:02;;;;;;;11.70;3.72;;;25.60;50.70;;;;;;4935714;29;20047;-92
2021/03/31 12:06:27;;;;;;;7.95;3.38;;;25.70;50.20;;;;;;4932697;29;20034;-92
2021/03/31 12:08:53;;;;;;;9.02;4.05;;;25.70;50.00;;;;;;4932856;29;20086;-92
2021/03/31 12:11:19;;;;;;;11.15;3.92;;;25.80;49.70;;;;;;4934258;29;20034;-91
2021/03/31 12:13:45;;;;;;;8.18;3.63;;;26.00;49.60;;;;;;4930741;29;20019;-92
2021/03/31 12:16:11;;;;;;;14.48;4.32;;;26.10;49.00;;;;;;4928889;29;20497;-93
2021/03/31 12:18:37;;;;;;;7.68;3.75;;;26.20;48.80;;;;;;4928183;29;20043;-94
2021/03/31 12:21:03;;;;;;;9.90;3.28;;;26.30;48.60;;;;;;4928890;29;20058;-92
2021/03/31 12:23:29;;;;;;;9.05;3.58;;;26.40;48.90;;;;;;4929359;29;20039;-94
2021/03/31 12:25:55;;;;;;;11.60;3.60;;;26.60;48.60;;;;;;4930736;29;20026;-93
2021/03/31 12:28:24;;;;;;;6.22;3.15;;;26.60;48.30;;;;;;4930202;29;20027;-93
2021/03/31 12:30:50;;;;;;;12.70;3.65;;;26.60;48.00;;;;;;4942868;29;20038;-93
2021/03/31 12:33:16;;;;;;;12.35;3.55;;;26.50;47.80;;;;;;4949893;28;20015;-94
2021/03/31 12:35:43;;;;;;;7.65;3.63;;;26.40;47.50;;;;;;4948800;29;20087;-95
2021/03/31 12:38:09;;;;;;;13.52;3.53;;;26.50;47.40;;;;;;4944801;29;20118;-93
2021/03/31 12:40:35;;;;;;;10.95;3.58;;;26.70;47.50;;;;;;4933511;29;20047;-94
2021/03/31 12:43:01;;;;;;;10.48;3.88;;;26.80;47.30;;;;;;4921620;29;20039;-95
2021/03/31 12:45:27;;;;;;;8.93;4.10;;;27.00;47.10;;;;;;4932937;29;20053;-93
2021/03/31 12:47:53;;;;;;;14.00;5.22;;;27.00;46.80;;;;;;4932849;29;20027;-93
2021/03/31 12:50:20;;;;;;;10.20;4.15;;;27.00;46.70;;;;;;4933411;29;20024;-93
2021/03/31 12:52:56;;;;;;;14.88;4.38;;;27.20;46.90;;;;;;4934143;29;20062;-93
2021/03/31 12:55:40;;;;;;;14.20;4.57;;;27.40;46.70;;;;;;4933416;29;20028;-93
2021/03/31 12:58:10;;;;;;;13.82;4.28;;;27.50;46.10;;;;;;4931954;29;20036;-93
2021/03/31 13:00:35;;;;;;;13.98;4.40;;;27.60;46.10;;;;;;4931897;29;20027;-93
2021/03/31 13:03:01;;;;;;;13.48;4.22;;;27.70;45.90;;;;;;4932292;29;20031;-93
2021/03/31 13:05:27;;;;;;;16.80;4.40;;;27.80;45.80;;;;;;4930459;29;20144;-93
2021/03/31 13:07:53;;;;;;;12.65;4.53;;;27.80;45.40;;;;;;4933219;29;20479;-94
2021/03/31 13:10:19;;;;;;;11.93;4.63;;;27.70;45.60;;;;;;4935192;29;20078;-93
2021/03/31 13:15:22;;;;;;;14.60;5.32;;;27.80;46.00;;;;;;4957468;29;20038;-93
2021/03/31 13:18:10;;;;;;;15.70;5.00;;;27.90;46.40;;;;;;4950761;29;20091;-92
2021/03/31 13:23:28;;;;;;;12.52;5.45;;;28.10;46.20;;;;;;4966351;28;20043;-93
2021/03/31 13:26:17;;;;;;;17.05;6.00;;;28.20;46.10;;;;;;4940834;29;20497;-93
2021/03/31 13:31:31;;;;;;;11.60;5.15;;;28.60;46.00;;;;;;4950957;29;20062;-94
2021/03/31 13:34:09;;;;;;;16.17;6.40;;;28.60;45.60;;;;;;4931549;29;20024;-94
2021/03/31 13:36:48;;;;;;;12.30;4.35;;;28.60;45.40;;;;;;4933150;29;20031;-94
2021/03/31 13:39:18;;;;;;;16.85;6.80;;;28.60;45.50;;;;;;4933313;29;20043;-93
2021/03/31 13:41:44;;;;;;;;;;;28.70;45.40;;;;;;4935485;29;20035;-93
2021/03/31 13:44:10;;;;;;;19.15;7.15;;;28.80;45.50;;;;;;4933540;29;19913;-94
2021/03/31 13:46:43;;;;;;;15.98;6.00;;;29.00;45.40;;;;;;4950420;29;20030;-93
2021/03/31 13:49:18;;;;;;;31.67;15.75;;;29.00;45.50;;;;;;4933369;29;20035;-95
2021/03/31 13:51:57;;;;;;;18.23;7.55;;;29.10;45.60;;;;;;4933690;29;20031;-93
2021/03/31 13:54:23;;;;;;;16.05;5.45;;;28.90;45.30;;;;;;4929558;29;20023;-93
2021/03/31 13:56:49;;;;;;;16.25;5.63;;;28.80;45.30;;;;;;4932057;29;20093;-92
2021/03/31 13:59:14;;;;;;;21.70;5.72;;;28.80;45.60;;;;;;4932776;29;20098;-93
2021/03/31 14:01:40;;;;;;;14.68;6.18;;;28.90;45.90;;;;;;4932185;29;20457;-92
2021/03/31 14:04:06;;;;;;;10.70;5.30;;;29.00;45.50;;;;;;4932640;29;20031;-93
2021/03/31 14:06:32;;;;;;;16.40;5.78;;;29.00;45.20;;;;;;4949357;29;20038;-93
2021/03/31 14:08:59;;;;;;;13.85;5.80;;;29.10;45.00;;;;;;4932408;29;20110;-93
2021/03/31 14:11:24;;;;;;;12.35;6.22;;;29.10;44.70;;;;;;4929020;29;20020;-94
2021/03/31 14:13:50;;;;;;;14.63;6.15;;;29.10;44.50;;;;;;4931266;29;20362;-93
2021/03/31 14:16:16;;;;;;;12.77;5.60;;;29.20;44.40;;;;;;4929843;29;20027;-94
2021/03/31 14:18:45;;;;;;;12.52;5.55;;;29.30;44.30;;;;;;4930683;29;20043;-94
2021/03/31 14:21:11;;;;;;;13.38;5.25;;;29.30;44.20;;;;;;4930554;29;20482;-92
2021/03/31 14:23:36;;;;;;;18.30;5.78;;;29.10;44.20;;;;;;4924238;29;20042;-93
2021/03/31 14:26:02;;;;;;;13.75;5.63;;;29.00;44.60;;;;;;4928785;29;20023;-93
2021/03/31 14:28:29;;;;;;;12.23;5.10;;;29.10;44.60;;;;;;4930796;29;20035;-94
2021/03/31 14:30:55;;;;;;;12.63;5.32;;;29.00;44.30;;;;;;4930438;29;20087;-93
2021/03/31 14:33:20;;;;;;;19.20;5.80;;;28.90;44.20;;;;;;4932186;29;20050;-92
2021/03/31 14:35:46;;;;;;;13.35;4.82;;;28.80;44.00;;;;;;4929847;29;20027;-93
2021/03/31 14:38:12;;;;;;;12.02;5.03;;;28.70;43.90;;;;;;4931550;29;20039;-93
2021/03/31 14:40:38;;;;;;;21.02;5.03;;;28.60;44.10;;;;;;4948768;29;20023;-94
2021/03/31 14:43:04;;;;;;;10.85;4.72;;;28.70;43.90;;;;;;4931079;29;20035;-92
2021/03/31 14:45:29;;;;;;;15.48;5.40;;;28.70;43.90;;;;;;4931878;29;20055;-93
2021/03/31 14:47:59;;;;;;;18.67;4.88;;;28.60;43.70;;;;;;4932349;29;20031;-93
2021/03/31 14:50:29;;;;;;;10.93;4.37;;;28.60;43.90;;;;;;4952486;29;20098;-93
2021/03/31 15:00:54;;;;;;;11.63;5.00;;;29.00;43.50;;;;;;4914754;29;20106;-93
2021/03/31 15:05:54;;;;;;;15.68;5.10;;;29.10;43.00;;;;;;4907076;29;20027;-93
2021/03/31 15:08:20;;;;;;;15.93;4.65;;;29.00;43.00;;;;;;4931578;29;20549;-92
2021/03/31 15:10:46;;;;;;;19.67;5.00;;;28.90;42.90;;;;;;4930924;29;20078;-93
2021/03/31 15:13:11;;;;;;;13.32;4.80;;;28.90;43.00;;;;;;4938650;29;20043;-91
2021/03/31 15:15:37;;;;;;;20.13;5.30;;;28.90;43.30;;;;;;4947303;29;20061;-93
2021/03/31 15:18:03;;;;;;;14.52;5.53;;;28.70;43.50;;;;;;4948362;29;20046;-93
2021/03/31 15:20:42;;;;;;;19.77;5.45;;;28.60;43.90;;;;;;4949017;29;20062;-93
2021/03/31 15:23:25;;;;;;;14.73;5.82;;;28.50;44.10;;;;;;4936357;29;20039;-92
2021/03/31 15:25:51;;;;;;;15.38;5.30;;;28.50;44.10;;;;;;4920701;29;20028;-93
2021/03/31 15:28:17;;;;;;;17.05;5.57;;;28.60;44.20;;;;;;4933071;29;20024;-93
2021/03/31 15:30:45;;;;;;;15.40;5.65;;;28.60;44.00;;;;;;4932142;29;20395;-92
2021/03/31 15:33:12;;;;;;;14.63;4.55;;;28.70;44.00;;;;;;4934973;29;20023;-93
2021/03/31 15:35:37;;;;;;;18.23;5.05;;;28.70;44.00;;;;;;4933150;29;20024;-92
2021/03/31 15:38:03;;;;;;;16.33;4.95;;;28.70;44.20;;;;;;4933296;29;20035;-93
2021/03/31 15:40:29;;;;;;;11.73;4.70;;;28.70;44.50;;;;;;4934069;29;20027;-92
2021/03/31 15:42:55;;;;;;;14.27;4.25;;;28.80;44.70;;;;;;4947509;29;20045;-93
2021/03/31 15:45:21;;;;;;;10.05;4.55;;;28.80;44.40;;;;;;4950020;29;20074;-92
2021/03/31 15:47:48;;;;;;;14.07;4.40;;;28.60;44.10;;;;;;4949536;29;20012;-92
2021/03/31 15:50:15;;;;;;;10.45;4.60;;;28.50;44.00;;;;;;4951741;29;20095;-93
2021/03/31 15:52:41;;;;;;;13.15;5.22;;;28.40;43.90;;;;;;4948982;29;20055;-93
2021/03/31 15:55:08;;;;;;;14.02;4.68;;;28.30;44.10;;;;;;4940471;29;20031;-92
2021/03/31 15:57:34;;;;;;;12.07;5.07;;;28.30;44.30;;;;;;4933588;29;20066;-91
2021/03/31 16:00:00;;;;;;;15.27;4.95;;;28.20;44.10;;;;;;4934824;29;20046;-92
2021/03/31 16:02:26;;;;;;;15.18;5.03;;;28.10;44.20;;;;;;4935327;29;20166;-91
2021/03/31 16:04:53;;;;;;;11.27;5.00;;;28.00;44.40;;;;;;4930196;29;20024;-92
2021/03/31 16:07:35;;;;;;;21.77;5.18;;;28.00;44.40;;;;;;4932321;29;20040;-94
2021/03/31 16:10:06;;;;;;;12.88;5.07;;;27.90;44.30;;;;;;4935428;29;20034;-92
2021/03/31 16:12:31;;;;;;;15.77;5.22;;;27.80;44.20;;;;;;4934905;29;20035;-92
2021/03/31 16:14:57;;;;;;;15.88;4.85;;;27.70;44.40;;;;;;4936177;29;20024;-93
2021/03/31 16:17:26;;;;;;;13.30;5.30;;;27.70;44.50;;;;;;4954002;29;20035;-93
2021/03/31 16:19:53;;;;;;;14.20;4.82;;;27.50;44.80;;;;;;4938868;29;20031;-93
2021/03/31 16:22:19;;;;;;;13.30;4.72;;;27.40;45.10;;;;;;4923488;29;20031;-92
2021/03/31 16:24:49;;;;;;;12.70;4.60;;;27.40;45.30;;;;;;4933417;29;20091;-92
2021/03/31 16:27:17;;;;;;;17.02;5.63;;;27.40;45.40;;;;;;4953537;29;20043;-92
2021/03/31 16:29:58;;;;;;;13.10;4.70;;;27.30;45.10;;;;;;4953625;29;20123;-93
2021/03/31 16:32:28;;;;;;;14.32;4.65;;;27.10;44.90;;;;;;4940666;29;20036;-92
2021/03/31 16:34:54;;;;;;;12.82;4.53;;;26.80;45.30;;;;;;4927753;29;20020;-91
2021/03/31 16:37:26;;;;;;;9.43;4.53;;;26.50;45.70;;;;;;4925623;29;20099;-92
2021/03/31 16:39:52;;;;;;;16.33;5.05;;;26.40;46.20;;;;;;4924157;29;20028;-92
2021/03/31 16:42:17;;;;;;;9.40;4.15;;;26.40;46.20;;;;;;4923616;29;20034;-92
2021/03/31 16:44:47;;;;;;;14.93;4.50;;;26.20;46.40;;;;;;4923276;29;20496;-92
2021/03/31 16:47:12;;;;;;;8.87;4.20;;;26.20;46.70;;;;;;4935257;29;20028;-93
2021/03/31 16:49:38;;;;;;;11.85;4.30;;;26.10;46.80;;;;;;4928606;29;20590;-93
2021/03/31 16:52:05;;;;;;;12.80;4.18;;;26.00;46.80;;;;;;4926814;29;20051;-94
2021/03/31 16:54:31;;;;;;;11.48;4.32;;;25.80;47.10;;;;;;4926857;29;20023;-95
2021/03/31 16:56:57;;;;;;;15.85;5.10;;;25.60;47.40;;;;;;4926678;29;20573;-94
2021/03/31 16:59:24;;;;;;;12.25;4.75;;;25.50;47.60;;;;;;4927403;29;20023;-95
2021/03/31 17:01:50;;;;;;;16.40;4.22;;;25.30;47.60;;;;;;4927859;29;20044;-95
2021/03/31 17:04:16;;;;;;;14.55;4.03;;;25.20;47.80;;;;;;4944312;29;20037;-95
2021/03/31 17:06:43;;;;;;;12.55;3.90;;;25.10;48.20;;;;;;4928437;29;20510;-95
2021/03/31 17:09:09;;;;;;;16.15;4.47;;;25.10;48.40;;;;;;4928858;29;20032;-94
2021/03/31 17:11:36;;;;;;;11.27;4.45;;;24.90;48.30;;;;;;4927483;29;20032;-94
2021/03/31 17:14:06;;;;;;;10.48;4.72;;;24.80;48.40;;;;;;4925041;29;20027;-94
2021/03/31 17:16:32;;;;;;;13.82;4.60;;;24.70;48.40;;;;;;4923818;29;20055;-93
2021/03/31 17:18:57;;;;;;;13.05;4.00;;;24.60;48.50;;;;;;4939733;29;20050;-93
2021/03/31 17:21:24;;;;;;;12.23;4.10;;;24.50;48.60;;;;;;4924087;29;20027;-93
2021/03/31 17:23:50;;;;;;;13.85;3.95;;;24.30;48.80;;;;;;4924955;29;20027;-94
2021/03/31 17:26:16;;;;;;;11.25;3.95;;;24.10;49.00;;;;;;4913664;29;20064;-94
2021/03/31 17:28:42;;;;;;;11.43;3.78;;;24.00;49.50;;;;;;4915831;29;20450;-93
2021/03/31 17:31:07;;;;;;;9.55;3.67;;;24.00;50.80;;;;;;4938744;29;20076;-94
2021/03/31 17:33:35;;;;;;;24.55;7.85;;;24.00;51.50;;;;;;4942643;29;20039;-93
2021/03/31 17:36:00;;;;;;;20.48;6.80;;;23.90;51.80;;;;;;4938929;29;20028;-92
2021/03/31 17:38:26;;;;;;;16.10;6.88;;;23.80;52.30;;;;;;4934383;29;20104;-92
2021/03/31 17:40:52;;;;;;;21.38;7.93;;;23.70;53.00;;;;;;4931578;29;20472;-93
2021/03/31 17:43:19;;;;;;;22.10;8.60;;;23.60;53.70;;;;;;4950363;29;20051;-94
2021/03/31 17:45:45;;;;;;;19.90;8.20;;;23.60;54.20;;;;;;4935841;29;20026;-93
2021/03/31 17:48:11;;;;;;;21.40;8.93;;;23.40;54.40;;;;;;4929685;29;20028;-94
2021/03/31 17:50:37;;;;;;;21.38;9.02;;;23.40;55.00;;;;;;4929566;29;20038;-93
2021/03/31 17:53:09;;;;;;;21.40;8.98;;;23.30;55.30;;;;;;4949331;29;20027;-94
2021/03/31 17:55:34;;;;;;;19.88;8.40;;;23.20;55.70;;;;;;4942552;29;20028;-94
2021/03/31 17:58:01;;;;;;;25.08;10.25;;;23.10;56.20;;;;;;4961463;29;20118;-93
2021/03/31 18:00:27;;;;;;;20.05;10.02;;;23.00;56.60;;;;;;4948125;29;20024;-94
2021/03/31 18:02:53;;;;;;;22.85;8.85;;;22.90;56.70;;;;;;4945782;28;20055;-93
2021/03/31 18:05:20;;;;;;;26.58;9.40;;;22.80;56.90;;;;;;4940842;29;20114;-93
2021/03/31 18:07:48;;;;;;;23.00;9.32;;;22.70;57.10;;;;;;4947626;29;20426;-93
2021/03/31 18:10:15;;;;;;;24.10;9.52;;;22.60;57.30;;;;;;4944677;29;20063;-93
2021/03/31 18:12:45;;;;;;;22.42;8.88;;;22.50;57.60;;;;;;4943550;29;20056;-93
2021/03/31 18:15:14;;;;;;;26.13;10.60;;;22.30;58.00;;;;;;4927754;29;20028;-93
2021/03/31 18:17:43;;;;;;;25.90;9.30;;;22.20;58.40;;;;;;4941970;29;20043;-92
2021/03/31 18:20:09;;;;;;;30.35;11.85;;;22.10;58.50;;;;;;4941731;29;20058;-92
2021/03/31 18:22:35;;;;;;;29.55;10.07;;;22.00;58.80;;;;;;4941691;29;20535;-93
2021/03/31 18:25:09;;;;;;;23.38;9.57;;;21.80;58.80;;;;;;4957162;28;20109;-93
2021/03/31 18:27:35;;;;;;;20.73;9.88;;;21.70;59.20;;;;;;4925566;29;20038;-93
2021/03/31 18:30:06;;;;;;;22.73;10.43;;;21.50;59.30;;;;;;4941373;29;20035;-93
2021/03/31 18:32:36;;;;;;;28.00;10.68;;;21.40;59.50;;;;;;4957039;29;20035;-93
2021/03/31 18:35:07;;;;;;;30.15;10.65;;;21.20;59.60;;;;;;4956611;29;20047;-90
2021/03/31 18:37:33;;;;;;;21.60;10.02;;;21.10;59.80;;;;;;4956254;29;20493;-92
2021/03/31 18:40:07;;;;;;;25.52;10.73;;;20.90;60.30;;;;;;4955392;28;20232;-91
2021/03/31 18:43:00;;;;;;;23.35;9.75;;;20.80;60.90;;;;;;4956825;29;20057;-91
2021/03/31 18:45:22;;;;;;;22.92;10.23;;;20.60;61.30;;;;;;4956144;29;20026;-91
2021/03/31 18:47:49;;;;;;;24.05;10.27;;;20.40;61.80;;;;;;4937780;29;20031;-92
2021/03/31 18:50:15;;;;;;;20.75;10.30;;;20.20;62.20;;;;;;4938285;29;20067;-91
2021/03/31 18:52:44;;;;;;;23.25;9.82;;;20.10;62.70;;;;;;4937006;29;20019;-92
2021/03/31 18:55:11;;;;;;;21.92;10.95;;;20.00;63.20;;;;;;4936287;29;20059;-92
2021/03/31 18:57:37;;;;;;;21.63;11.10;;;19.80;63.60;;;;;;4935152;29;20051;-90
2021/03/31 19:00:06;;;;;;;24.35;12.20;;;19.60;64.10;;;;;;4937032;29;20111;-91
2021/03/31 19:02:33;;;;;;;23.85;11.35;;;19.50;64.50;;;;;;4931365;29;20034;-90
2021/03/31 19:04:58;;;;;;;22.63;11.68;;;19.40;64.90;;;;;;4935506;29;20035;-91
2021/03/31 19:07:24;;;;;;;23.15;10.68;;;19.20;65.10;;;;;;4925356;29;20031;-91
2021/03/31 19:12:34;;;;;;;23.48;10.10;;;18.90;65.90;;;;;;4951878;29;20046;-91
2021/03/31 19:15:00;;;;;;;18.88;10.43;;;18.80;66.20;;;;;;4938337;29;20023;-92
2021/03/31 19:17:27;;;;;;;26.00;10.55;;;18.70;66.50;;;;;;4933760;29;20448;-91
2021/03/31 19:19:54;;;;;;;19.33;10.60;;;18.70;66.90;;;;;;4949059;29;20020;-90
2021/03/31 19:22:20;;;;;;;19.25;10.02;;;18.60;67.00;;;;;;4929208;29;20506;-91
2021/03/31 19:24:52;;;;;;;22.58;10.30;;;18.50;67.10;;;;;;4936062;29;20024;-91
2021/03/31 19:27:22;;;;;;;17.05;9.93;;;18.40;67.50;;;;;;4947007;29;20031;-91
2021/03/31 19:29:48;;;;;;;20.67;11.07;;;18.30;67.80;;;;;;4955041;29;20035;-91
2021/03/31 19:32:15;;;;;;;20.88;10.32;;;18.20;67.90;;;;;;4960667;28;20188;-92